sensor_id;sensor_type;location;lat;lon;timestamp;P1;durP1;ratioP1;P2;durP2;ratioP2
54125;SDS011;40360;52.992;6.796;2023-11-21T00:02:07;39.30;;;16.70;;
54125;SDS011;40360;52.992;6.796;2023-11-21T00:04:32;39.15;;;15.73;;
54125;SDS011;40360;52.992;6.796;2023-11-21T00:06:58;36.92;;;16.60;;
54125;SDS011;40360;52.992;6.796;2023-11-21T00:09:23;37.90;;;15.23;;
54125;SDS011;40360;52.992;6.796;2023-11-21T00:11:49;33.45;;;13.77;;
54125;SDS011;40360;52.992;6.796;2023-11-21T00:14:15;47.05;;;15.38;;
54125;SDS011;40360;52.992;6.796;2023-11-21T00:16:41;39.42;;;16.55;;
54125;SDS011;40360;52.992;6.796;2023-11-21T00:19:09;42.42;;;15.55;;
54125;SDS011;40360;52.992;6.796;2023-11-21T00:21:35;33.03;;;14.85;;
54125;SDS011;40360;52.992;6.796;2023-11-21T00:24:01;33.22;;;14.82;;
54125;SDS011;40360;52.992;6.796;2023-11-21T00:26:26;40.80;;;15.63;;
54125;SDS011;40360;52.992;6.796;2023-11-21T00:28:53;35.95;;;16.02;;
54125;SDS011;40360;52.992;6.796;2023-11-21T00:31:18;38.70;;;14.60;;
54125;SDS011;40360;52.992;6.796;2023-11-21T00:33:44;41.38;;;15.77;;
54125;SDS011;40360;52.992;6.796;2023-11-21T00:36:09;32.78;;;13.85;;
54125;SDS011;40360;52.992;6.796;2023-11-21T00:38:36;37.92;;;16.08;;
54125;SDS011;40360;52.992;6.796;2023-11-21T00:41:05;36.00;;;14.90;;
54125;SDS011;40360;52.992;6.796;2023-11-21T00:43:31;41.28;;;16.20;;
54125;SDS011;40360;52.992;6.796;2023-11-21T00:45:58;37.35;;;15.82;;
54125;SDS011;40360;52.992;6.796;2023-11-21T00:48:24;40.72;;;16.52;;
54125;SDS011;40360;52.992;6.796;2023-11-21T00:50:49;37.60;;;14.13;;
54125;SDS011;40360;52.992;6.796;2023-11-21T00:53:15;35.17;;;16.25;;
54125;SDS011;40360;52.992;6.796;2023-11-21T00:55:41;32.80;;;16.05;;
54125;SDS011;40360;52.992;6.796;2023-11-21T00:58:06;41.63;;;16.88;;
54125;SDS011;40360;52.992;6.796;2023-11-21T01:00:33;42.97;;;15.45;;
54125;SDS011;40360;52.992;6.796;2023-11-21T01:02:59;43.83;;;16.88;;
54125;SDS011;40360;52.992;6.796;2023-11-21T01:05:25;42.95;;;17.73;;
54125;SDS011;40360;52.992;6.796;2023-11-21T01:07:51;40.50;;;16.85;;
54125;SDS011;40360;52.992;6.796;2023-11-21T01:10:17;32.33;;;15.18;;
54125;SDS011;40360;52.992;6.796;2023-11-21T01:12:43;37.50;;;16.83;;
54125;SDS011;40360;52.992;6.796;2023-11-21T01:15:08;37.20;;;16.52;;
54125;SDS011;40360;52.992;6.796;2023-11-21T01:17:37;42.30;;;16.83;;
54125;SDS011;40360;52.992;6.796;2023-11-21T01:20:03;44.47;;;18.05;;
54125;SDS011;40360;52.992;6.796;2023-11-21T01:22:35;44.47;;;18.13;;
54125;SDS011;40360;52.992;6.796;2023-11-21T01:25:01;48.15;;;18.48;;
54125;SDS011;40360;52.992;6.796;2023-11-21T01:27:29;48.35;;;19.00;;
54125;SDS011;40360;52.992;6.796;2023-11-21T01:29:55;43.92;;;16.90;;
54125;SDS011;40360;52.992;6.796;2023-11-21T01:32:20;48.83;;;18.20;;
54125;SDS011;40360;52.992;6.796;2023-11-21T01:34:47;44.88;;;19.52;;
54125;SDS011;40360;52.992;6.796;2023-11-21T01:37:15;50.40;;;20.38;;
54125;SDS011;40360;52.992;6.796;2023-11-21T01:39:42;46.95;;;19.48;;
54125;SDS011;40360;52.992;6.796;2023-11-21T01:42:10;53.00;;;20.42;;
54125;SDS011;40360;52.992;6.796;2023-11-21T01:44:38;49.03;;;20.75;;
54125;SDS011;40360;52.992;6.796;2023-11-21T01:47:05;54.72;;;20.60;;
54125;SDS011;40360;52.992;6.796;2023-11-21T01:49:32;42.05;;;17.20;;
54125;SDS011;40360;52.992;6.796;2023-11-21T01:51:58;55.40;;;21.10;;
54125;SDS011;40360;52.992;6.796;2023-11-21T01:54:24;44.22;;;20.65;;
54125;SDS011;40360;52.992;6.796;2023-11-21T01:56:50;47.63;;;20.52;;
54125;SDS011;40360;52.992;6.796;2023-11-21T01:59:19;46.33;;;19.73;;
54125;SDS011;40360;52.992;6.796;2023-11-21T02:01:46;47.00;;;20.42;;
54125;SDS011;40360;52.992;6.796;2023-11-21T02:04:13;49.05;;;19.52;;
54125;SDS011;40360;52.992;6.796;2023-11-21T02:06:39;54.72;;;23.05;;
54125;SDS011;40360;52.992;6.796;2023-11-21T02:09:05;50.97;;;22.23;;
54125;SDS011;40360;52.992;6.796;2023-11-21T02:11:30;49.03;;;21.30;;
54125;SDS011;40360;52.992;6.796;2023-11-21T02:13:58;58.65;;;21.45;;
54125;SDS011;40360;52.992;6.796;2023-11-21T02:16:24;53.17;;;21.15;;
54125;SDS011;40360;52.992;6.796;2023-11-21T02:18:51;63.10;;;22.42;;
54125;SDS011;40360;52.992;6.796;2023-11-21T02:21:17;50.20;;;21.10;;
54125;SDS011;40360;52.992;6.796;2023-11-21T02:23:44;57.53;;;23.48;;
54125;SDS011;40360;52.992;6.796;2023-11-21T02:26:11;61.47;;;23.42;;
54125;SDS011;40360;52.992;6.796;2023-11-21T02:28:38;50.47;;;21.77;;
54125;SDS011;40360;52.992;6.796;2023-11-21T02:31:05;50.75;;;20.85;;
54125;SDS011;40360;52.992;6.796;2023-11-21T02:33:30;51.17;;;21.52;;
54125;SDS011;40360;52.992;6.796;2023-11-21T02:36:00;54.72;;;21.80;;
54125;SDS011;40360;52.992;6.796;2023-11-21T02:38:26;47.47;;;21.25;;
54125;SDS011;40360;52.992;6.796;2023-11-21T02:40:52;46.28;;;21.70;;
54125;SDS011;40360;52.992;6.796;2023-11-21T02:43:18;61.17;;;23.85;;
54125;SDS011;40360;52.992;6.796;2023-11-21T02:45:44;52.85;;;21.48;;
54125;SDS011;40360;52.992;6.796;2023-11-21T02:48:09;52.72;;;20.27;;
54125;SDS011;40360;52.992;6.796;2023-11-21T02:50:35;50.80;;;21.92;;
54125;SDS011;40360;52.992;6.796;2023-11-21T02:53:01;61.05;;;23.45;;
54125;SDS011;40360;52.992;6.796;2023-11-21T02:55:27;58.60;;;22.52;;
54125;SDS011;40360;52.992;6.796;2023-11-21T02:57:53;56.10;;;22.52;;
54125;SDS011;40360;52.992;6.796;2023-11-21T03:00:21;56.25;;;22.20;;
54125;SDS011;40360;52.992;6.796;2023-11-21T03:02:49;52.72;;;20.70;;
54125;SDS011;40360;52.992;6.796;2023-11-21T03:05:15;46.58;;;20.25;;
54125;SDS011;40360;52.992;6.796;2023-11-21T03:07:41;58.05;;;21.13;;
54125;SDS011;40360;52.992;6.796;2023-11-21T03:10:07;57.78;;;21.73;;
54125;SDS011;40360;52.992;6.796;2023-11-21T03:12:34;48.13;;;20.10;;
54125;SDS011;40360;52.992;6.796;2023-11-21T03:14:59;48.75;;;21.52;;
54125;SDS011;40360;52.992;6.796;2023-11-21T03:17:27;73.28;;;24.35;;
54125;SDS011;40360;52.992;6.796;2023-11-21T03:19:54;55.75;;;19.90;;
54125;SDS011;40360;52.992;6.796;2023-11-21T03:22:20;42.50;;;19.80;;
54125;SDS011;40360;52.992;6.796;2023-11-21T03:24:45;53.38;;;21.75;;
54125;SDS011;40360;52.992;6.796;2023-11-21T03:27:11;59.53;;;21.95;;
54125;SDS011;40360;52.992;6.796;2023-11-21T03:29:37;57.70;;;23.58;;
54125;SDS011;40360;52.992;6.796;2023-11-21T03:32:03;65.05;;;24.20;;
54125;SDS011;40360;52.992;6.796;2023-11-21T03:34:29;57.42;;;21.00;;
54125;SDS011;40360;52.992;6.796;2023-11-21T03:36:55;46.50;;;19.65;;
54125;SDS011;40360;52.992;6.796;2023-11-21T03:39:20;49.72;;;20.98;;
54125;SDS011;40360;52.992;6.796;2023-11-21T03:41:47;83.30;;;25.33;;
54125;SDS011;40360;52.992;6.796;2023-11-21T03:44:13;50.33;;;18.92;;
54125;SDS011;40360;52.992;6.796;2023-11-21T03:46:39;52.38;;;20.05;;
54125;SDS011;40360;52.992;6.796;2023-11-21T03:49:05;57.75;;;21.27;;
54125;SDS011;40360;52.992;6.796;2023-11-21T03:51:30;50.72;;;22.88;;
54125;SDS011;40360;52.992;6.796;2023-11-21T03:53:56;57.25;;;21.95;;
54125;SDS011;40360;52.992;6.796;2023-11-21T03:56:22;56.78;;;24.90;;
54125;SDS011;40360;52.992;6.796;2023-11-21T03:58:48;50.65;;;22.23;;
54125;SDS011;40360;52.992;6.796;2023-11-21T04:01:22;55.22;;;23.02;;
54125;SDS011;40360;52.992;6.796;2023-11-21T04:03:49;69.10;;;27.02;;
54125;SDS011;40360;52.992;6.796;2023-11-21T04:06:15;49.53;;;22.20;;
54125;SDS011;40360;52.992;6.796;2023-11-21T04:08:42;54.88;;;22.73;;
54125;SDS011;40360;52.992;6.796;2023-11-21T04:11:11;49.75;;;23.88;;
54125;SDS011;40360;52.992;6.796;2023-11-21T04:13:38;69.32;;;25.23;;
54125;SDS011;40360;52.992;6.796;2023-11-21T04:16:05;77.13;;;27.77;;
54125;SDS011;40360;52.992;6.796;2023-11-21T04:18:37;51.60;;;23.90;;
54125;SDS011;40360;52.992;6.796;2023-11-21T04:21:04;49.30;;;22.40;;
54125;SDS011;40360;52.992;6.796;2023-11-21T04:23:30;53.22;;;23.45;;
54125;SDS011;40360;52.992;6.796;2023-11-21T04:25:59;58.25;;;25.27;;
54125;SDS011;40360;52.992;6.796;2023-11-21T04:28:27;60.40;;;26.00;;
54125;SDS011;40360;52.992;6.796;2023-11-21T04:30:52;50.47;;;23.92;;
54125;SDS011;40360;52.992;6.796;2023-11-21T04:33:18;41.25;;;21.25;;
54125;SDS011;40360;52.992;6.796;2023-11-21T04:35:44;42.35;;;22.10;;
54125;SDS011;40360;52.992;6.796;2023-11-21T04:38:10;47.22;;;23.55;;
54125;SDS011;40360;52.992;6.796;2023-11-21T04:40:35;43.70;;;23.13;;
54125;SDS011;40360;52.992;6.796;2023-11-21T04:43:01;37.67;;;19.65;;
54125;SDS011;40360;52.992;6.796;2023-11-21T04:45:27;56.70;;;22.80;;
54125;SDS011;40360;52.992;6.796;2023-11-21T04:47:52;40.55;;;21.38;;
54125;SDS011;40360;52.992;6.796;2023-11-21T04:50:18;61.53;;;25.73;;
54125;SDS011;40360;52.992;6.796;2023-11-21T04:52:44;43.55;;;20.25;;
54125;SDS011;40360;52.992;6.796;2023-11-21T04:55:10;40.90;;;22.13;;
54125;SDS011;40360;52.992;6.796;2023-11-21T04:57:36;61.90;;;26.92;;
54125;SDS011;40360;52.992;6.796;2023-11-21T05:00:02;60.30;;;24.90;;
54125;SDS011;40360;52.992;6.796;2023-11-21T05:02:31;36.53;;;21.40;;
54125;SDS011;40360;52.992;6.796;2023-11-21T05:04:59;51.92;;;23.67;;
54125;SDS011;40360;52.992;6.796;2023-11-21T05:07:25;66.57;;;25.92;;
54125;SDS011;40360;52.992;6.796;2023-11-21T05:09:54;37.63;;;21.73;;
54125;SDS011;40360;52.992;6.796;2023-11-21T05:12:21;47.95;;;23.40;;
54125;SDS011;40360;52.992;6.796;2023-11-21T05:14:48;46.35;;;24.45;;
54125;SDS011;40360;52.992;6.796;2023-11-21T05:17:14;45.45;;;23.88;;
54125;SDS011;40360;52.992;6.796;2023-11-21T05:19:40;60.97;;;24.55;;
54125;SDS011;40360;52.992;6.796;2023-11-21T05:22:06;37.47;;;21.08;;
54125;SDS011;40360;52.992;6.796;2023-11-21T05:24:33;40.78;;;21.48;;
54125;SDS011;40360;52.992;6.796;2023-11-21T05:26:58;33.45;;;20.25;;
54125;SDS011;40360;52.992;6.796;2023-11-21T05:29:24;43.58;;;22.55;;
54125;SDS011;40360;52.992;6.796;2023-11-21T05:31:50;38.17;;;21.27;;
54125;SDS011;40360;52.992;6.796;2023-11-21T05:34:18;37.30;;;21.00;;
54125;SDS011;40360;52.992;6.796;2023-11-21T05:36:43;38.58;;;20.33;;
54125;SDS011;40360;52.992;6.796;2023-11-21T05:39:13;38.00;;;21.58;;
54125;SDS011;40360;52.992;6.796;2023-11-21T05:41:39;36.63;;;20.05;;
54125;SDS011;40360;52.992;6.796;2023-11-21T05:44:05;38.60;;;21.55;;
54125;SDS011;40360;52.992;6.796;2023-11-21T06:02:24;48.35;;;22.52;;
54125;SDS011;40360;52.992;6.796;2023-11-21T06:04:51;58.22;;;27.67;;
54125;SDS011;40360;52.992;6.796;2023-11-21T06:07:16;56.38;;;27.27;;
54125;SDS011;40360;52.992;6.796;2023-11-21T06:09:42;70.05;;;27.20;;
54125;SDS011;40360;52.992;6.796;2023-11-21T06:12:09;58.92;;;26.77;;
54125;SDS011;40360;52.992;6.796;2023-11-21T06:14:35;74.03;;;28.73;;
54125;SDS011;40360;52.992;6.796;2023-11-21T06:17:01;64.88;;;26.40;;
54125;SDS011;40360;52.992;6.796;2023-11-21T06:19:27;61.28;;;23.88;;
54125;SDS011;40360;52.992;6.796;2023-11-21T06:21:52;45.13;;;19.17;;
54125;SDS011;40360;52.992;6.796;2023-11-21T06:24:18;40.75;;;17.23;;
54125;SDS011;40360;52.992;6.796;2023-11-21T06:26:45;32.15;;;15.32;;
54125;SDS011;40360;52.992;6.796;2023-11-21T06:29:13;28.30;;;15.20;;
54125;SDS011;40360;52.992;6.796;2023-11-21T06:31:39;37.95;;;17.88;;
54125;SDS011;40360;52.992;6.796;2023-11-21T06:34:05;33.65;;;17.50;;
54125;SDS011;40360;52.992;6.796;2023-11-21T06:36:31;34.42;;;17.67;;
54125;SDS011;40360;52.992;6.796;2023-11-21T06:38:57;39.97;;;19.10;;
54125;SDS011;40360;52.992;6.796;2023-11-21T06:41:22;35.78;;;17.10;;
54125;SDS011;40360;52.992;6.796;2023-11-21T06:43:48;33.75;;;17.02;;
54125;SDS011;40360;52.992;6.796;2023-11-21T06:46:14;38.72;;;17.85;;
54125;SDS011;40360;52.992;6.796;2023-11-21T06:48:42;37.10;;;17.80;;
54125;SDS011;40360;52.992;6.796;2023-11-21T06:51:08;34.60;;;17.25;;
54125;SDS011;40360;52.992;6.796;2023-11-21T06:59:22;32.28;;;15.77;;
54125;SDS011;40360;52.992;6.796;2023-11-21T07:01:59;33.42;;;17.02;;
54125;SDS011;40360;52.992;6.796;2023-11-21T07:04:33;34.08;;;16.65;;
54125;SDS011;40360;52.992;6.796;2023-11-21T07:06:59;35.63;;;17.52;;
54125;SDS011;40360;52.992;6.796;2023-11-21T07:09:25;28.83;;;14.88;;
54125;SDS011;40360;52.992;6.796;2023-11-21T07:11:52;36.78;;;17.25;;
54125;SDS011;40360;52.992;6.796;2023-11-21T07:14:18;40.92;;;17.10;;
54125;SDS011;40360;52.992;6.796;2023-11-21T07:16:45;31.48;;;15.70;;
54125;SDS011;40360;52.992;6.796;2023-11-21T07:19:11;32.00;;;16.05;;
54125;SDS011;40360;52.992;6.796;2023-11-21T07:21:38;25.67;;;13.63;;
54125;SDS011;40360;52.992;6.796;2023-11-21T07:24:05;31.95;;;14.95;;
54125;SDS011;40360;52.992;6.796;2023-11-21T07:26:31;30.83;;;14.55;;
54125;SDS011;40360;52.992;6.796;2023-11-21T07:28:59;31.15;;;14.18;;
54125;SDS011;40360;52.992;6.796;2023-11-21T07:31:25;39.72;;;19.13;;
54125;SDS011;40360;52.992;6.796;2023-11-21T07:33:52;35.95;;;17.38;;
54125;SDS011;40360;52.992;6.796;2023-11-21T07:36:18;40.53;;;18.45;;
54125;SDS011;40360;52.992;6.796;2023-11-21T07:38:45;48.75;;;18.92;;
54125;SDS011;40360;52.992;6.796;2023-11-21T07:41:12;39.95;;;18.45;;
54125;SDS011;40360;52.992;6.796;2023-11-21T07:43:40;48.72;;;20.88;;
54125;SDS011;40360;52.992;6.796;2023-11-21T07:46:07;49.38;;;20.50;;
54125;SDS011;40360;52.992;6.796;2023-11-21T07:48:35;47.47;;;22.30;;
54125;SDS011;40360;52.992;6.796;2023-11-21T07:51:02;50.78;;;22.10;;
54125;SDS011;40360;52.992;6.796;2023-11-21T07:53:32;47.95;;;20.58;;
54125;SDS011;40360;52.992;6.796;2023-11-21T07:55:58;48.80;;;22.52;;
54125;SDS011;40360;52.992;6.796;2023-11-21T07:58:29;46.70;;;23.88;;
54125;SDS011;40360;52.992;6.796;2023-11-21T08:00:55;52.92;;;23.00;;
54125;SDS011;40360;52.992;6.796;2023-11-21T08:03:21;43.80;;;23.55;;
54125;SDS011;40360;52.992;6.796;2023-11-21T08:05:47;46.25;;;22.05;;
54125;SDS011;40360;52.992;6.796;2023-11-21T08:08:13;38.80;;;19.95;;
54125;SDS011;40360;52.992;6.796;2023-11-21T08:10:38;38.13;;;19.33;;
54125;SDS011;40360;52.992;6.796;2023-11-21T08:13:04;38.45;;;20.08;;
54125;SDS011;40360;52.992;6.796;2023-11-21T08:15:31;40.65;;;20.05;;
54125;SDS011;40360;52.992;6.796;2023-11-21T08:17:57;42.17;;;22.75;;
54125;SDS011;40360;52.992;6.796;2023-11-21T08:20:26;44.40;;;23.30;;
54125;SDS011;40360;52.992;6.796;2023-11-21T08:22:53;44.20;;;24.25;;
54125;SDS011;40360;52.992;6.796;2023-11-21T08:25:18;38.92;;;22.60;;
54125;SDS011;40360;52.992;6.796;2023-11-21T08:27:45;35.75;;;22.17;;
54125;SDS011;40360;52.992;6.796;2023-11-21T08:30:11;39.05;;;23.10;;
54125;SDS011;40360;52.992;6.796;2023-11-21T08:32:39;40.17;;;24.23;;
54125;SDS011;40360;52.992;6.796;2023-11-21T08:35:06;41.10;;;25.63;;
54125;SDS011;40360;52.992;6.796;2023-11-21T08:37:32;43.72;;;26.90;;
54125;SDS011;40360;52.992;6.796;2023-11-21T08:40:02;41.70;;;24.58;;
54125;SDS011;40360;52.992;6.796;2023-11-21T08:42:29;39.55;;;23.95;;
54125;SDS011;40360;52.992;6.796;2023-11-21T08:44:55;43.50;;;26.30;;
54125;SDS011;40360;52.992;6.796;2023-11-21T08:47:24;39.67;;;25.15;;
54125;SDS011;40360;52.992;6.796;2023-11-21T08:49:51;39.72;;;24.83;;
54125;SDS011;40360;52.992;6.796;2023-11-21T08:52:20;42.55;;;25.85;;
54125;SDS011;40360;52.992;6.796;2023-11-21T08:54:47;42.65;;;25.27;;
54125;SDS011;40360;52.992;6.796;2023-11-21T08:57:14;37.70;;;25.13;;
54125;SDS011;40360;52.992;6.796;2023-11-21T08:59:40;43.30;;;28.20;;
54125;SDS011;40360;52.992;6.796;2023-11-21T09:02:06;44.03;;;27.00;;
54125;SDS011;40360;52.992;6.796;2023-11-21T09:04:33;38.75;;;25.20;;
54125;SDS011;40360;52.992;6.796;2023-11-21T09:06:58;36.70;;;24.20;;
54125;SDS011;40360;52.992;6.796;2023-11-21T09:09:25;38.30;;;25.40;;
54125;SDS011;40360;52.992;6.796;2023-11-21T09:11:51;37.08;;;25.08;;
54125;SDS011;40360;52.992;6.796;2023-11-21T09:14:16;38.65;;;25.17;;
54125;SDS011;40360;52.992;6.796;2023-11-21T09:16:43;41.40;;;25.67;;
54125;SDS011;40360;52.992;6.796;2023-11-21T09:19:08;37.38;;;24.00;;
54125;SDS011;40360;52.992;6.796;2023-11-21T09:21:34;34.75;;;22.45;;
54125;SDS011;40360;52.992;6.796;2023-11-21T09:24:00;33.63;;;21.95;;
54125;SDS011;40360;52.992;6.796;2023-11-21T09:26:25;31.90;;;21.27;;
54125;SDS011;40360;52.992;6.796;2023-11-21T09:28:51;28.90;;;18.85;;
54125;SDS011;40360;52.992;6.796;2023-11-21T09:31:17;28.70;;;18.50;;
54125;SDS011;40360;52.992;6.796;2023-11-21T09:33:47;31.05;;;19.10;;
54125;SDS011;40360;52.992;6.796;2023-11-21T09:36:13;28.92;;;18.17;;
54125;SDS011;40360;52.992;6.796;2023-11-21T09:38:39;27.27;;;18.15;;
54125;SDS011;40360;52.992;6.796;2023-11-21T09:41:08;28.85;;;17.65;;
54125;SDS011;40360;52.992;6.796;2023-11-21T09:43:45;28.10;;;18.65;;
54125;SDS011;40360;52.992;6.796;2023-11-21T09:46:12;28.55;;;18.52;;
54125;SDS011;40360;52.992;6.796;2023-11-21T09:48:45;26.25;;;17.88;;
54125;SDS011;40360;52.992;6.796;2023-11-21T09:51:18;24.73;;;16.95;;
54125;SDS011;40360;52.992;6.796;2023-11-21T09:53:47;22.15;;;16.05;;
54125;SDS011;40360;52.992;6.796;2023-11-21T09:56:17;24.05;;;16.02;;
54125;SDS011;40360;52.992;6.796;2023-11-21T09:58:50;22.63;;;15.95;;
54125;SDS011;40360;52.992;6.796;2023-11-21T10:01:17;22.10;;;16.23;;
54125;SDS011;40360;52.992;6.796;2023-11-21T10:03:44;21.35;;;15.48;;
54125;SDS011;40360;52.992;6.796;2023-11-21T10:06:10;20.73;;;15.43;;
54125;SDS011;40360;52.992;6.796;2023-11-21T10:08:39;21.60;;;14.30;;
54125;SDS011;40360;52.992;6.796;2023-11-21T10:11:06;18.42;;;13.90;;
54125;SDS011;40360;52.992;6.796;2023-11-21T10:13:36;17.73;;;12.98;;
54125;SDS011;40360;52.992;6.796;2023-11-21T10:16:03;18.25;;;12.15;;
54125;SDS011;40360;52.992;6.796;2023-11-21T10:18:32;16.63;;;12.60;;
54125;SDS011;40360;52.992;6.796;2023-11-21T10:20:59;16.77;;;13.30;;
54125;SDS011;40360;52.992;6.796;2023-11-21T10:23:25;14.98;;;10.80;;
54125;SDS011;40360;52.992;6.796;2023-11-21T10:25:54;13.68;;;10.52;;
54125;SDS011;40360;52.992;6.796;2023-11-21T10:28:20;13.48;;;10.25;;
54125;SDS011;40360;52.992;6.796;2023-11-21T10:30:46;13.68;;;11.13;;
54125;SDS011;40360;52.992;6.796;2023-11-21T10:33:12;14.38;;;11.18;;
54125;SDS011;40360;52.992;6.796;2023-11-21T10:38:18;14.10;;;10.10;;
54125;SDS011;40360;52.992;6.796;2023-11-21T10:40:49;13.18;;;9.23;;
54125;SDS011;40360;52.992;6.796;2023-11-21T10:43:15;12.20;;;9.40;;
54125;SDS011;40360;52.992;6.796;2023-11-21T10:45:42;12.13;;;9.38;;
54125;SDS011;40360;52.992;6.796;2023-11-21T10:48:09;10.68;;;8.40;;
54125;SDS011;40360;52.992;6.796;2023-11-21T10:50:36;15.75;;;9.50;;
54125;SDS011;40360;52.992;6.796;2023-11-21T10:53:05;10.70;;;8.80;;
54125;SDS011;40360;52.992;6.796;2023-11-21T10:55:31;12.57;;;9.00;;
54125;SDS011;40360;52.992;6.796;2023-11-21T10:58:01;11.73;;;8.82;;
54125;SDS011;40360;52.992;6.796;2023-11-21T11:00:29;11.15;;;8.07;;
54125;SDS011;40360;52.992;6.796;2023-11-21T11:02:56;13.20;;;9.18;;
54125;SDS011;40360;52.992;6.796;2023-11-21T11:05:24;11.15;;;8.32;;
54125;SDS011;40360;52.992;6.796;2023-11-21T11:07:52;10.65;;;8.13;;
54125;SDS011;40360;52.992;6.796;2023-11-21T11:10:28;10.43;;;8.63;;
54125;SDS011;40360;52.992;6.796;2023-11-21T11:12:57;11.07;;;8.63;;
54125;SDS011;40360;52.992;6.796;2023-11-21T11:15:24;12.15;;;9.15;;
54125;SDS011;40360;52.992;6.796;2023-11-21T11:17:52;11.20;;;8.57;;
54125;SDS011;40360;52.992;6.796;2023-11-21T11:20:27;12.05;;;8.90;;
54125;SDS011;40360;52.992;6.796;2023-11-21T11:28:35;11.38;;;8.77;;
54125;SDS011;40360;52.992;6.796;2023-11-21T11:37:05;11.40;;;8.75;;
54125;SDS011;40360;52.992;6.796;2023-11-21T11:39:35;10.55;;;8.05;;
54125;SDS011;40360;52.992;6.796;2023-11-21T11:42:04;11.55;;;8.30;;
54125;SDS011;40360;52.992;6.796;2023-11-21T11:47:30;11.20;;;8.75;;
54125;SDS011;40360;52.992;6.796;2023-11-21T11:50:09;12.95;;;8.68;;
54125;SDS011;40360;52.992;6.796;2023-11-21T11:52:45;11.40;;;8.35;;
54125;SDS011;40360;52.992;6.796;2023-11-21T11:55:13;10.40;;;8.77;;
54125;SDS011;40360;52.992;6.796;2023-11-21T11:57:41;9.38;;;7.22;;
54125;SDS011;40360;52.992;6.796;2023-11-21T12:00:11;10.88;;;7.90;;
54125;SDS011;40360;52.992;6.796;2023-11-21T12:02:56;9.52;;;7.47;;
54125;SDS011;40360;52.992;6.796;2023-11-21T12:05:25;9.38;;;7.50;;
54125;SDS011;40360;52.992;6.796;2023-11-21T12:08:02;11.13;;;7.85;;
54125;SDS011;40360;52.992;6.796;2023-11-21T12:10:35;9.80;;;7.55;;
54125;SDS011;40360;52.992;6.796;2023-11-21T12:15:33;9.73;;;7.22;;
54125;SDS011;40360;52.992;6.796;2023-11-21T12:18:00;10.23;;;8.43;;
54125;SDS011;40360;52.992;6.796;2023-11-21T12:20:26;10.80;;;7.47;;
54125;SDS011;40360;52.992;6.796;2023-11-21T12:22:53;9.02;;;7.38;;
54125;SDS011;40360;52.992;6.796;2023-11-21T12:25:21;9.20;;;6.88;;
54125;SDS011;40360;52.992;6.796;2023-11-21T12:27:49;11.80;;;7.97;;
54125;SDS011;40360;52.992;6.796;2023-11-21T12:30:18;11.43;;;8.88;;
54125;SDS011;40360;52.992;6.796;2023-11-21T12:32:53;9.38;;;7.65;;
54125;SDS011;40360;52.992;6.796;2023-11-21T12:35:21;10.80;;;7.70;;
54125;SDS011;40360;52.992;6.796;2023-11-21T12:37:49;10.60;;;7.30;;
54125;SDS011;40360;52.992;6.796;2023-11-21T12:40:20;10.52;;;7.72;;
54125;SDS011;40360;52.992;6.796;2023-11-21T12:42:48;9.20;;;7.22;;
54125;SDS011;40360;52.992;6.796;2023-11-21T12:47:48;11.88;;;7.70;;
54125;SDS011;40360;52.992;6.796;2023-11-21T12:50:19;11.20;;;7.60;;
54125;SDS011;40360;52.992;6.796;2023-11-21T12:53:00;10.70;;;7.25;;
54125;SDS011;40360;52.992;6.796;2023-11-21T12:55:31;11.50;;;8.18;;
54125;SDS011;40360;52.992;6.796;2023-11-21T12:57:57;8.60;;;7.18;;
54125;SDS011;40360;52.992;6.796;2023-11-21T13:00:34;10.57;;;7.53;;
54125;SDS011;40360;52.992;6.796;2023-11-21T13:03:05;9.10;;;7.20;;
54125;SDS011;40360;52.992;6.796;2023-11-21T13:05:38;9.35;;;6.70;;
54125;SDS011;40360;52.992;6.796;2023-11-21T13:08:06;10.82;;;6.80;;
54125;SDS011;40360;52.992;6.796;2023-11-21T13:10:34;14.15;;;7.60;;
54125;SDS011;40360;52.992;6.796;2023-11-21T13:13:05;10.15;;;7.50;;
54125;SDS011;40360;52.992;6.796;2023-11-21T13:15:34;8.95;;;6.05;;
54125;SDS011;40360;52.992;6.796;2023-11-21T13:18:05;9.82;;;7.45;;
54125;SDS011;40360;52.992;6.796;2023-11-21T13:20:32;9.35;;;7.85;;
54125;SDS011;40360;52.992;6.796;2023-11-21T13:22:58;8.60;;;6.85;;
54125;SDS011;40360;52.992;6.796;2023-11-21T13:25:25;9.25;;;6.50;;
54125;SDS011;40360;52.992;6.796;2023-11-21T13:27:56;11.32;;;6.72;;
54125;SDS011;40360;52.992;6.796;2023-11-21T13:30:24;11.63;;;7.70;;
54125;SDS011;40360;52.992;6.796;2023-11-21T13:32:58;9.75;;;7.30;;
54125;SDS011;40360;52.992;6.796;2023-11-21T13:35:35;9.80;;;6.82;;
54125;SDS011;40360;52.992;6.796;2023-11-21T13:38:09;11.57;;;7.88;;
54125;SDS011;40360;52.992;6.796;2023-11-21T13:40:37;10.63;;;6.63;;
54125;SDS011;40360;52.992;6.796;2023-11-21T13:43:17;12.98;;;6.90;;
54125;SDS011;40360;52.992;6.796;2023-11-21T13:45:47;9.23;;;6.80;;
54125;SDS011;40360;52.992;6.796;2023-11-21T13:48:23;13.15;;;8.25;;
54125;SDS011;40360;52.992;6.796;2023-11-21T13:51:12;10.45;;;7.95;;
54125;SDS011;40360;52.992;6.796;2023-11-21T13:53:43;10.35;;;7.20;;
54125;SDS011;40360;52.992;6.796;2023-11-21T13:56:17;9.38;;;7.40;;
54125;SDS011;40360;52.992;6.796;2023-11-21T13:58:48;9.98;;;7.03;;
54125;SDS011;40360;52.992;6.796;2023-11-21T14:01:17;9.95;;;7.47;;
54125;SDS011;40360;52.992;6.796;2023-11-21T14:03:56;9.52;;;7.68;;
54125;SDS011;40360;52.992;6.796;2023-11-21T14:06:27;10.25;;;7.68;;
54125;SDS011;40360;52.992;6.796;2023-11-21T14:09:00;10.52;;;6.85;;
54125;SDS011;40360;52.992;6.796;2023-11-21T14:11:30;9.70;;;7.18;;
54125;SDS011;40360;52.992;6.796;2023-11-21T14:13:56;9.98;;;7.18;;
54125;SDS011;40360;52.992;6.796;2023-11-21T14:16:24;9.32;;;6.72;;
54125;SDS011;40360;52.992;6.796;2023-11-21T14:18:50;10.00;;;7.10;;
54125;SDS011;40360;52.992;6.796;2023-11-21T14:23:52;11.32;;;7.30;;
54125;SDS011;40360;52.992;6.796;2023-11-21T14:26:23;9.80;;;6.95;;
54125;SDS011;40360;52.992;6.796;2023-11-21T14:28:51;9.85;;;7.22;;
54125;SDS011;40360;52.992;6.796;2023-11-21T14:31:18;10.00;;;7.22;;
54125;SDS011;40360;52.992;6.796;2023-11-21T14:33:44;10.85;;;7.15;;
54125;SDS011;40360;52.992;6.796;2023-11-21T14:36:10;9.10;;;7.75;;
54125;SDS011;40360;52.992;6.796;2023-11-21T14:38:36;10.43;;;6.70;;
54125;SDS011;40360;52.992;6.796;2023-11-21T14:41:04;9.25;;;6.55;;
54125;SDS011;40360;52.992;6.796;2023-11-21T14:43:33;9.48;;;6.22;;
54125;SDS011;40360;52.992;6.796;2023-11-21T14:46:01;9.38;;;7.55;;
54125;SDS011;40360;52.992;6.796;2023-11-21T14:48:28;9.52;;;6.18;;
54125;SDS011;40360;52.992;6.796;2023-11-21T14:51:13;9.38;;;6.53;;
54125;SDS011;40360;52.992;6.796;2023-11-21T14:53:52;8.80;;;6.60;;
54125;SDS011;40360;52.992;6.796;2023-11-21T14:56:22;11.48;;;8.30;;
54125;SDS011;40360;52.992;6.796;2023-11-21T14:58:59;12.82;;;8.73;;
54125;SDS011;40360;52.992;6.796;2023-11-21T15:01:31;10.70;;;7.40;;
54125;SDS011;40360;52.992;6.796;2023-11-21T15:04:18;8.88;;;6.10;;
54125;SDS011;40360;52.992;6.796;2023-11-21T15:07:10;9.63;;;6.50;;
54125;SDS011;40360;52.992;6.796;2023-11-21T15:09:39;9.20;;;6.68;;
54125;SDS011;40360;52.992;6.796;2023-11-21T15:12:09;7.55;;;6.05;;
54125;SDS011;40360;52.992;6.796;2023-11-21T15:14:49;10.13;;;6.80;;
54125;SDS011;40360;52.992;6.796;2023-11-21T15:17:20;10.27;;;6.65;;